Time;durP1;ratioP1;P1;durP2;ratioP2;P2;SDS_P1;SDS_P2;PMS_P1;PMS_P2;Temp;Humidity;BMP_temperature;BMP_pressure;BME280_temperature;BME280_humidity;BME280_pressure;Samples;Min_cycle;Max_cycle;Signal;HPM_P1;HPM_P2
2022/01/20 00:00:20;;;;;;;19.33;9.60;;;;;;;-5.73;88.07;98694.88;5035918;28;20050;-79
2022/01/20 00:02:58;;;;;;;17.50;8.18;;;;;;;-5.74;87.84;98689.78;5017851;28;20509;-78
2022/01/20 00:06:20;;;;;;;15.65;7.95;;;;;;;-5.70;88.06;98689.09;5002898;28;20076;-76
2022/01/20 00:27:20;;;;;;;21.42;8.73;;;;;;;-5.49;87.68;98679.09;5014280;28;20518;-77
2022/01/20 00:32:19;;;;;;;16.60;7.80;;;;;;;-5.48;87.32;98660.59;4998439;28;20059;-77
2022/01/20 00:37:26;;;;;;;18.20;8.38;;;;;;;-5.42;87.40;98656.66;5014613;28;20060;-77
2022/01/20 00:39:52;;;;;;;19.13;8.65;;;;;;;-5.43;87.55;98646.50;4997605;28;20172;-77
2022/01/20 00:42:18;;;;;;;14.77;8.00;;;;;;;-5.43;87.15;98649.88;5013838;28;20445;-77
2022/01/20 00:44:44;;;;;;;19.60;9.35;;;;;;;-5.43;87.69;98654.94;5013774;28;20042;-78
2022/01/20 00:47:11;;;;;;;18.75;9.10;;;;;;;-5.40;87.30;98637.38;4997641;28;20042;-77
2022/01/20 00:49:36;;;;;;;20.15;9.05;;;;;;;-5.40;87.58;98628.94;4997587;28;20038;-77
2022/01/20 00:52:03;;;;;;;20.25;9.30;;;;;;;-5.42;87.71;98628.00;4998154;28;20357;-77
2022/01/20 00:54:29;;;;;;;17.77;9.98;;;;;;;-5.45;87.84;98620.28;5014122;28;20049;-78
2022/01/20 00:56:55;;;;;;;21.42;10.10;;;;;;;-5.52;88.09;98614.09;5030181;28;20091;-78
2022/01/20 00:59:21;;;;;;;17.27;9.07;;;;;;;-5.41;88.00;98622.13;5013890;28;20042;-80
2022/01/20 01:01:46;;;;;;;21.40;9.43;;;;;;;-5.40;88.49;98609.56;5013864;28;20049;-78
2022/01/20 01:04:12;;;;;;;20.75;8.20;;;;;;;-5.34;88.19;98603.91;5013887;28;20081;-77
2022/01/20 01:06:54;;;;;;;23.73;10.25;;;;;;;-5.32;88.40;98601.44;4997386;28;20054;-78
2022/01/20 01:09:20;;;;;;;20.10;9.98;;;;;;;-5.38;88.42;98600.38;4999555;28;20125;-76
2022/01/20 01:11:47;;;;;;;17.52;9.68;;;;;;;-5.39;88.29;98600.31;4997553;28;20120;-78
2022/01/20 01:14:15;;;;;;;17.35;9.02;;;;;;;-5.34;88.28;98614.00;4997086;28;20042;-76
2022/01/20 01:24:39;;;;;;;20.23;10.15;;;;;;;-5.29;88.93;98601.56;5013174;28;20041;-77
2022/01/20 01:27:05;;;;;;;19.73;11.25;;;;;;;-5.31;88.07;98606.56;4980950;28;20036;-77
2022/01/20 01:32:18;;;;;;;22.13;9.45;;;;;;;-5.28;88.81;98600.75;5012155;28;20568;-78
2022/01/20 01:34:49;;;;;;;22.42;9.95;;;;;;;-5.25;88.18;98594.16;5012550;28;20048;-76
2022/01/20 01:39:59;;;;;;;18.95;9.75;;;;;;;-5.19;88.63;98591.88;5012592;28;20053;-77
2022/01/20 01:42:33;;;;;;;20.27;10.25;;;;;;;-5.20;88.36;98586.78;4980669;28;20040;-77
2022/01/20 01:45:09;;;;;;;18.88;10.00;;;;;;;-5.17;88.27;98587.78;5030346;28;20113;-77
2022/01/20 01:47:34;;;;;;;21.40;10.32;;;;;;;-5.13;87.93;98573.59;4996269;28;20049;-77
2022/01/20 01:50:01;;;;;;;20.15;9.75;;;;;;;-5.12;88.11;98571.13;4980463;28;20562;-79
2022/01/20 01:52:28;;;;;;;22.58;9.68;;;;;;;-5.11;87.48;98571.97;4996629;28;20065;-78
2022/01/20 01:54:53;;;;;;;20.92;9.88;;;;;;;-5.09;88.13;98567.81;4996650;28;20116;-81
2022/01/20 01:57:19;;;;;;;20.13;10.30;;;;;;;-5.12;87.95;98560.13;5014135;28;20045;-78
2022/01/20 01:59:45;;;;;;;21.10;10.85;;;;;;;-5.17;87.54;98562.50;4980453;28;20033;-79
2022/01/20 02:02:19;;;;;;;21.55;11.40;;;;;;;-5.13;88.16;98563.47;5030223;28;20425;-79
2022/01/20 02:04:45;;;;;;;22.48;10.38;;;;;;;-5.05;88.29;98553.66;5029427;28;20038;-78
2022/01/20 02:18:45;;;;;;;19.33;10.45;;;;;;;-5.06;88.41;98534.22;4998909;28;20037;-77
2022/01/20 02:21:43;;;;;;;20.88;11.05;;;;;;;-5.07;88.45;98514.81;5010770;28;20152;-80
2022/01/20 02:24:09;;;;;;;25.42;10.38;;;;;;;-5.05;88.76;98491.28;5012398;28;20065;-77
2022/01/20 02:26:35;;;;;;;24.20;10.65;;;;;;;-5.03;88.64;98504.88;4996304;28;20057;-78
2022/01/20 02:29:01;;;;;;;;;;;;;;;-5.07;88.61;98518.19;4996540;28;20045;-76
2022/01/20 02:31:27;;;;;;;22.50;10.70;;;;;;;-5.07;88.76;98475.22;5028834;28;19953;-79
2022/01/20 02:33:54;;;;;;;23.45;10.98;;;;;;;-5.01;88.68;98489.75;5045197;28;20465;-78
2022/01/20 02:36:21;;;;;;;23.75;11.45;;;;;;;-5.02;88.87;98477.91;5011607;28;20404;-78
2022/01/20 02:38:55;;;;;;;28.05;12.75;;;;;;;-4.99;89.12;98480.56;5028128;28;20037;-78
2022/01/20 02:46:56;;;;;;;21.20;10.35;;;;;;;-4.91;88.92;98471.59;4997651;28;20076;-78
2022/01/20 02:49:22;;;;;;;25.23;11.57;;;;;;;-4.95;89.18;98474.78;4979236;28;20033;-79
2022/01/20 02:51:52;;;;;;;26.80;11.90;;;;;;;-4.89;89.51;98488.56;4995749;28;20052;-80
2022/01/20 02:54:18;;;;;;;22.48;10.40;;;;;;;-4.91;88.98;98477.50;4995637;28;20549;-78
2022/01/20 02:56:44;;;;;;;23.85;12.07;;;;;;;-4.86;89.66;98490.31;5012301;28;20041;-76
2022/01/20 02:59:11;;;;;;;25.98;13.02;;;;;;;-4.84;89.49;98486.19;5011554;28;20069;-77
2022/01/20 03:01:36;;;;;;;23.25;11.02;;;;;;;-4.83;89.23;98467.69;5011957;28;20034;-77
2022/01/20 03:04:03;;;;;;;23.02;11.38;;;;;;;-4.81;89.91;98488.84;5040199;28;20057;-80
2022/01/20 03:06:29;;;;;;;23.92;11.95;;;;;;;-4.81;89.32;98461.03;4984086;28;20426;-79
2022/01/20 03:08:55;;;;;;;22.10;11.77;;;;;;;-4.79;89.67;98474.56;5012372;28;20172;-77
2022/01/20 03:11:20;;;;;;;23.27;11.18;;;;;;;-4.76;89.70;98478.91;5012889;28;20119;-79
2022/01/20 03:13:46;;;;;;;25.38;12.27;;;;;;;-4.79;89.58;98458.53;5008029;28;20390;-78
2022/01/20 03:16:11;;;;;;;22.90;12.07;;;;;;;-4.83;90.17;98465.16;5008459;28;20034;-78
2022/01/20 03:18:38;;;;;;;27.33;12.65;;;;;;;-4.80;90.24;98462.75;5008195;28;20516;-79
2022/01/20 03:21:04;;;;;;;25.75;12.27;;;;;;;-4.79;90.42;98458.53;5008424;28;20030;-78
2022/01/20 03:23:30;;;;;;;28.33;12.90;;;;;;;-4.74;90.32;98464.63;5008335;28;20053;-77
2022/01/20 03:25:55;;;;;;;26.63;12.30;;;;;;;-4.76;90.31;98469.66;5008199;28;20030;-77
2022/01/20 03:28:21;;;;;;;25.60;12.85;;;;;;;-4.77;90.87;98464.50;5008271;28;20038;-77
2022/01/20 03:30:49;;;;;;;26.33;12.88;;;;;;;-4.86;91.04;98437.19;5028855;28;20061;-76
2022/01/20 03:33:15;;;;;;;26.38;13.48;;;;;;;-4.77;90.87;98460.31;4978681;28;20084;-77
2022/01/20 03:35:42;;;;;;;19.27;11.07;;;;;;;-4.73;90.66;98439.38;5027781;28;20069;-78
2022/01/20 03:38:37;;;;;;;33.08;12.27;;;;;;;-4.65;91.62;98438.00;5011935;28;20049;-79
2022/01/20 03:41:03;;;;;;;26.73;13.57;;;;;;;-4.64;90.99;98439.72;5028379;28;20493;-78
2022/01/20 03:43:29;;;;;;;23.90;12.40;;;;;;;-4.66;91.04;98425.28;5012660;28;20072;-79
2022/01/20 03:45:57;;;;;;;21.73;11.82;;;;;;;-4.64;91.28;98432.13;4995089;28;20438;-78
2022/01/20 03:48:26;;;;;;;26.77;12.40;;;;;;;-4.61;91.55;98432.25;5012629;28;20033;-78
2022/01/20 03:51:02;;;;;;;26.58;13.40;;;;;;;-4.63;91.61;98421.22;4995170;28;20481;-78
2022/01/20 03:53:36;;;;;;;23.55;12.10;;;;;;;-4.61;91.84;98419.59;5011098;28;20046;-77
2022/01/20 03:56:03;;;;;;;24.02;12.52;;;;;;;-4.62;91.78;98420.41;5027441;28;20080;-78
2022/01/20 03:58:39;;;;;;;30.20;13.20;;;;;;;-4.63;91.83;98421.22;5010488;28;20038;-79
2022/01/20 04:01:09;;;;;;;23.50;11.52;;;;;;;-4.58;92.76;98413.78;5014269;28;20061;-77
2022/01/20 04:03:57;;;;;;;26.38;13.70;;;;;;;-4.61;92.27;98409.47;5040384;28;20085;-79
2022/01/20 04:06:36;;;;;;;27.65;11.88;;;;;;;-4.59;92.60;98396.84;5048388;28;20045;-81
2022/01/20 04:09:03;;;;;;;30.85;13.95;;;;;;;-4.55;92.75;98407.94;5031441;28;20037;-79
2022/01/20 04:11:28;;;;;;;29.98;14.45;;;;;;;-4.53;92.69;98406.34;5015067;28;20025;-77
2022/01/20 04:13:55;;;;;;;30.45;13.52;;;;;;;-4.51;92.71;98405.59;5014804;28;20048;-79
2022/01/20 04:16:51;;;;;;;31.50;14.75;;;;;;;-4.49;93.24;98410.69;5014587;28;20037;-77
2022/01/20 04:19:18;;;;;;;29.85;12.95;;;;;;;-4.42;93.21;98405.03;5031152;28;20588;-80
2022/01/20 04:21:45;;;;;;;28.15;14.73;;;;;;;-4.47;92.92;98414.16;5031380;28;20080;-77
2022/01/20 04:24:10;;;;;;;28.42;13.65;;;;;;;-4.43;93.54;98398.25;5047719;28;20049;-77
2022/01/20 04:26:38;;;;;;;33.90;13.88;;;;;;;-4.37;93.25;98411.13;5031211;28;20045;-79
2022/01/20 04:29:06;;;;;;;26.08;13.98;;;;;;;-4.41;93.26;98405.09;5014250;28;20523;-77
2022/01/20 04:31:33;;;;;;;26.40;13.80;;;;;;;-4.39;93.27;98390.84;5016068;28;20037;-77
2022/01/20 04:33:58;;;;;;;34.08;14.10;;;;;;;-4.40;93.73;98408.47;5047438;28;20034;-78
2022/01/20 04:36:25;;;;;;;27.90;14.35;;;;;;;-4.40;94.07;98395.81;5030855;28;20388;-79
2022/01/20 04:38:52;;;;;;;30.02;14.52;;;;;;;-4.48;93.62;98374.47;5014014;28;20041;-76
2022/01/20 04:41:17;;;;;;;35.95;15.10;;;;;;;-4.35;93.35;98384.22;4998033;28;20037;-77
2022/01/20 04:43:44;;;;;;;31.52;14.60;;;;;;;-4.33;93.62;98380.03;5046916;28;20072;-78
2022/01/20 04:57:06;;;;;;;33.83;16.15;;;;;;;-4.33;93.68;98374.97;5000528;28;20045;-78
2022/01/20 04:59:29;;;;;;;29.67;14.57;;;;;;;-4.37;94.23;98376.53;5029898;28;19929;-78
2022/01/20 05:01:55;;;;;;;32.08;14.00;;;;;;;-4.34;93.79;98368.22;5030167;28;20038;-77
2022/01/20 05:04:38;;;;;;;32.53;16.17;;;;;;;-4.33;94.20;98357.25;4999629;28;20042;-78
2022/01/20 05:07:21;;;;;;;34.38;15.13;;;;;;;-4.33;94.19;98359.78;4998877;28;20091;-79
2022/01/20 05:09:48;;;;;;;29.02;14.05;;;;;;;-4.29;94.27;98355.69;4983240;28;20069;-78
2022/01/20 05:12:18;;;;;;;30.77;15.23;;;;;;;-4.32;94.04;98376.69;5013768;28;20131;-78
2022/01/20 05:14:45;;;;;;;27.60;12.80;;;;;;;-4.29;94.20;98354.03;5013824;28;20124;-77
2022/01/20 05:17:10;;;;;;;29.52;15.00;;;;;;;-4.31;93.88;98350.56;4997303;28;20561;-77
2022/01/20 05:19:37;;;;;;;28.67;14.43;;;;;;;-4.33;94.02;98359.78;5030058;28;20542;-78
2022/01/20 05:22:03;;;;;;;28.27;13.65;;;;;;;-4.23;93.84;98360.97;4997334;28;20092;-78
2022/01/20 05:24:36;;;;;;;30.48;15.20;;;;;;;-4.25;93.86;98345.72;5046258;28;20045;-78
2022/01/20 05:27:04;;;;;;;28.60;12.60;;;;;;;-4.26;93.65;98348.19;4981047;28;20038;-76
2022/01/20 05:29:30;;;;;;;;;;;;;;;-4.15;93.48;98355.34;5013468;28;20026;-77
2022/01/20 05:31:56;;;;;;;32.00;14.38;;;;;;;-4.19;93.72;98343.38;5029276;28;20289;-77
2022/01/20 05:34:22;;;;;;;26.85;13.18;;;;;;;-4.25;93.81;98335.59;5046211;28;20029;-78
2022/01/20 05:36:49;;;;;;;28.13;14.45;;;;;;;-4.24;93.54;98339.84;4997084;28;20042;-78
2022/01/20 05:39:16;;;;;;;27.20;12.80;;;;;;;-4.20;93.32;98328.16;5012839;28;20036;-78
2022/01/20 05:41:42;;;;;;;26.40;13.60;;;;;;;-4.20;94.14;98340.81;5013374;28;20052;-78
2022/01/20 05:44:18;;;;;;;31.88;13.15;;;;;;;-4.23;93.51;98310.31;5012789;28;20136;-79
2022/01/20 05:46:48;;;;;;;27.88;14.50;;;;;;;-4.21;93.51;98314.63;4997056;28;20040;-77
2022/01/20 05:49:33;;;;;;;25.60;13.68;;;;;;;-4.16;93.52;98323.25;5012747;28;20053;-77
2022/01/20 05:52:02;;;;;;;23.80;12.68;;;;;;;-4.19;94.00;98318.06;5029843;28;20389;-77
2022/01/20 05:54:28;;;;;;;25.83;13.88;;;;;;;-4.16;93.78;98323.25;5030406;28;20046;-78
2022/01/20 05:56:54;;;;;;;28.30;14.70;;;;;;;-4.18;93.47;98329.03;5013041;28;20037;-77
2022/01/20 05:59:20;;;;;;;24.90;13.98;;;;;;;-4.20;93.22;98326.47;5012658;28;20553;-77
2022/01/20 06:01:52;;;;;;;;;;;;;;;-4.19;93.75;98317.22;4996840;28;20100;-77
2022/01/20 06:04:18;;;;;;;28.33;14.75;;;;;;;-4.15;93.55;98321.56;5028508;28;19921;-78
2022/01/20 06:06:44;;;;;;;28.92;13.45;;;;;;;-4.16;93.30;98328.31;4996379;28;20048;-77
2022/01/20 06:09:10;;;;;;;29.33;14.70;;;;;;;-4.18;93.73;98334.97;4996178;28;20042;-78
2022/01/20 06:11:35;;;;;;;27.77;14.00;;;;;;;-4.20;93.33;98313.81;5046000;28;20038;-76
2022/01/20 06:14:03;;;;;;;22.45;13.00;;;;;;;-4.16;93.63;98312.25;4980491;28;20455;-78
2022/01/20 06:16:28;;;;;;;23.88;12.43;;;;;;;-4.12;93.49;98314.94;5013897;28;20124;-77
2022/01/20 06:18:54;;;;;;;25.88;13.20;;;;;;;-4.17;93.67;98316.47;5028151;28;20092;-79
2022/01/20 06:21:20;;;;;;;;;;;;;;;-4.14;92.96;98310.63;4980790;28;20063;-78
2022/01/20 06:23:47;;;;;;;23.07;12.67;;;;;;;-4.13;93.10;98298.00;5045796;28;19965;-78
2022/01/20 06:26:15;;;;;;;23.60;12.73;;;;;;;-4.16;93.26;98287.78;5029388;28;20044;-78
2022/01/20 06:28:41;;;;;;;22.77;12.07;;;;;;;-4.13;92.67;98292.91;5029395;28;20527;-79
2022/01/20 06:31:09;;;;;;;24.83;13.82;;;;;;;-4.14;93.01;98278.56;5012519;28;20030;-77
2022/01/20 06:33:35;;;;;;;24.55;12.57;;;;;;;-4.06;93.12;98293.13;5028839;28;20172;-78
2022/01/20 06:36:00;;;;;;;23.60;12.45;;;;;;;-4.09;92.87;98282.09;5045324;28;20042;-78
2022/01/20 06:38:28;;;;;;;22.35;13.15;;;;;;;-4.10;93.23;98282.03;5045021;28;20042;-78
2022/01/20 06:40:56;;;;;;;20.65;12.40;;;;;;;-4.05;93.44;98297.38;5028945;28;20088;-79
2022/01/20 06:43:22;;;;;;;21.00;13.07;;;;;;;-4.22;93.02;98290.09;4976111;28;20058;-79
2022/01/20 06:45:48;;;;;;;22.73;12.32;;;;;;;-4.06;92.76;98276.28;4992298;28;20042;-77
2022/01/20 06:48:20;;;;;;;21.85;11.70;;;;;;;-3.99;92.77;98292.50;5007964;28;20034;-78
2022/01/20 06:51:08;;;;;;;18.95;11.32;;;;;;;-3.93;92.94;98272.44;5013738;28;20050;-78
2022/01/20 06:53:34;;;;;;;17.83;11.43;;;;;;;-3.93;93.09;98280.03;5025020;28;20509;-78
2022/01/20 06:56:00;;;;;;;19.90;11.85;;;;;;;-3.98;92.82;98274.84;5025486;28;20030;-78
2022/01/20 06:58:26;;;;;;;17.63;11.32;;;;;;;-3.98;92.03;98282.44;5025015;28;20065;-78
2022/01/20 07:00:52;;;;;;;19.17;9.80;;;;;;;-4.00;92.40;98273.91;4992288;28;20042;-79
2022/01/20 07:03:17;;;;;;;;;;;;;;;-3.96;92.59;98287.53;5025066;28;20549;-77
2022/01/20 07:05:43;;;;;;;21.65;11.20;;;;;;;-3.91;92.35;98280.94;4993421;28;19957;-78
2022/01/20 07:08:09;;;;;;;;;;;;;;;-3.91;92.44;98296.13;5025512;28;20137;-78
2022/01/20 07:10:37;;;;;;;15.77;9.43;;;;;;;-3.96;91.64;98285.88;5025058;28;19924;-79
2022/01/20 07:13:03;;;;;;;19.42;10.57;;;;;;;-3.90;91.75;98291.09;5008161;28;20482;-77
2022/01/20 07:15:29;;;;;;;19.35;10.82;;;;;;;-3.92;91.79;98305.41;5008625;28;20406;-78
2022/01/20 07:17:56;;;;;;;16.90;10.27;;;;;;;-3.90;92.28;98313.06;4992558;28;20037;-77
2022/01/20 07:20:24;;;;;;;17.25;10.48;;;;;;;-3.92;92.09;98302.88;5009163;28;20501;-78
2022/01/20 07:23:06;;;;;;;17.58;10.38;;;;;;;-3.89;92.02;98292.00;5010998;28;20502;-78
2022/01/20 07:25:39;;;;;;;19.40;10.05;;;;;;;-3.87;91.57;98283.63;4992369;28;20410;-78
2022/01/20 07:28:13;;;;;;;17.35;10.57;;;;;;;-3.86;91.61;98275.19;5008046;28;20133;-77
2022/01/20 07:30:39;;;;;;;17.10;9.52;;;;;;;-3.80;91.75;98261.88;5026920;28;20069;-78
2022/01/20 07:33:05;;;;;;;16.58;8.45;;;;;;;-3.81;91.67;98265.19;5012134;28;20038;-78
2022/01/20 07:35:32;;;;;;;16.73;9.23;;;;;;;-3.73;91.02;98257.84;5012343;28;20406;-79
2022/01/20 07:37:58;;;;;;;;;;;;;;;-3.73;91.01;98278.09;5013690;28;20116;-82
2022/01/20 07:40:24;;;;;;;19.00;10.55;;;;;;;-3.76;91.15;98266.19;5012725;28;19972;-79
2022/01/20 07:42:50;;;;;;;17.83;9.93;;;;;;;-3.76;91.69;98263.66;5013494;28;20500;-77
2022/01/20 07:45:30;;;;;;;17.77;10.23;;;;;;;-3.76;90.81;98256.06;5001188;28;20070;-77
2022/01/20 07:48:22;;;;;;;17.70;9.18;;;;;;;-3.69;90.71;98254.56;5010708;28;20049;-77
2022/01/20 07:50:53;;;;;;;15.90;9.10;;;;;;;-3.70;90.57;98250.34;5015306;28;20413;-80
2022/01/20 07:53:24;;;;;;;17.95;10.45;;;;;;;-3.74;90.34;98251.06;4969139;28;20042;-77
2022/01/20 07:55:52;;;;;;;;;;;;;;;-3.65;91.04;98256.41;4983290;28;20037;-77
2022/01/20 07:58:18;;;;;;;16.70;9.48;;;;;;;-3.59;91.01;98257.41;5014866;28;19914;-83
2022/01/20 08:00:45;;;;;;;14.48;8.73;;;;;;;-3.59;90.34;98279.38;4999293;28;20077;-78
2022/01/20 08:03:11;;;;;;;14.43;8.73;;;;;;;-3.66;90.06;98253.00;5014847;28;20081;-79
2022/01/20 08:06:00;;;;;;;16.50;9.50;;;;;;;-3.63;90.94;98262.34;5002167;28;20049;-80
2022/01/20 08:08:31;;;;;;;15.55;8.93;;;;;;;-3.71;89.97;98252.00;5000285;28;20389;-79
2022/01/20 08:11:22;;;;;;;13.73;9.00;;;;;;;-3.67;90.23;98274.06;5023510;28;20136;-81
2022/01/20 08:13:49;;;;;;;86.38;34.22;;;;;;;-3.60;90.31;98260.78;5015025;28;20160;-78
2022/01/20 08:16:15;;;;;;;20.48;11.80;;;;;;;-3.63;89.87;98253.06;4982974;28;20065;-78
2022/01/20 08:18:40;;;;;;;16.40;9.45;;;;;;;-3.64;90.01;98269.09;5031400;28;20041;-77
2022/01/20 08:21:06;;;;;;;17.50;9.98;;;;;;;-3.61;89.53;98268.34;4998975;28;20128;-79
2022/01/20 08:23:32;;;;;;;15.05;9.00;;;;;;;-3.67;89.68;98261.38;5015665;28;20401;-78
2022/01/20 08:25:58;;;;;;;13.50;8.73;;;;;;;-3.62;89.36;98261.53;5014900;28;20497;-78
2022/01/20 08:28:24;;;;;;;16.77;9.00;;;;;;;-3.61;89.28;98266.66;4982815;28;20034;-78
2022/01/20 08:30:50;;;;;;;;;;;;;;;-3.58;89.44;98260.81;4982696;28;20073;-81
2022/01/20 08:33:16;;;;;;;17.23;8.63;;;;;;;-3.64;89.13;98258.97;5047605;28;19995;-79
2022/01/20 08:35:51;;;;;;;15.68;9.50;;;;;;;-3.73;89.10;98228.28;5014764;28;20038;-78
2022/01/20 08:38:33;;;;;;;13.52;8.25;;;;;;;-3.59;89.75;98251.50;5001007;28;20472;-80
2022/01/20 08:40:59;;;;;;;13.68;8.05;;;;;;;-3.48;88.90;98256.84;4998518;28;20045;-79
2022/01/20 08:43:25;;;;;;;15.35;8.95;;;;;;;-3.52;88.21;98247.47;5015349;28;20029;-77
2022/01/20 08:45:51;;;;;;;13.32;8.27;;;;;;;-3.50;88.65;98225.56;5014653;28;20049;-77
2022/01/20 08:48:19;;;;;;;13.70;8.23;;;;;;;-3.53;88.18;98220.38;4998407;28;20404;-80
2022/01/20 08:51:04;;;;;;;13.20;7.97;;;;;;;-3.52;88.25;98219.59;5015493;28;20049;-78
2022/01/20 08:53:35;;;;;;;12.77;8.75;;;;;;;-3.55;87.99;98222.03;5014388;28;20041;-78
2022/01/20 08:56:02;;;;;;;12.85;8.75;;;;;;;-3.54;87.74;98224.59;4998077;28;20065;-77
2022/01/20 08:58:28;;;;;;;13.07;8.00;;;;;;;-3.53;88.30;98202.63;4997909;28;20034;-78
2022/01/20 09:00:54;;;;;;;13.57;7.65;;;;;;;-3.53;87.39;98205.19;5014125;28;20045;-79
2022/01/20 09:03:23;;;;;;;12.82;7.72;;;;;;;-3.55;87.37;98195.00;5013910;28;20078;-78
2022/01/20 09:05:49;;;;;;;14.18;7.32;;;;;;;-3.50;87.06;98197.66;4998181;28;20046;-78
2022/01/20 09:08:24;;;;;;;13.30;7.47;;;;;;;-3.48;87.58;98193.47;5014370;28;20041;-78
2022/01/20 09:11:06;;;;;;;13.10;7.90;;;;;;;-3.50;87.26;98169.78;4999499;28;20500;-78
2022/01/20 09:16:20;;;;;;;;;;;;;;;-3.40;86.99;98179.34;5001051;28;20050;-79
2022/01/20 09:18:54;;;;;;;13.23;6.88;;;;;;;-3.48;86.93;98194.38;5013766;28;20024;-79
2022/01/20 09:21:23;;;;;;;10.40;6.75;;;;;;;-3.44;86.83;98175.88;4997698;28;20033;-78
2022/01/20 09:23:52;;;;;;;12.68;7.32;;;;;;;-3.43;86.80;98164.06;5013516;28;20034;-78
2022/01/20 09:26:18;;;;;;;;;;;;;;;-3.44;87.27;98163.19;5030909;28;20488;-79
2022/01/20 09:28:44;;;;;;;12.20;7.15;;;;;;;-3.39;86.85;98155.69;5047000;28;19913;-80
2022/01/20 09:31:14;;;;;;;13.05;7.88;;;;;;;-3.38;87.35;98175.19;4997632;28;20061;-77
2022/01/20 09:33:40;;;;;;;11.93;7.35;;;;;;;-3.39;86.97;98153.16;4997317;28;20046;-78
2022/01/20 09:36:10;;;;;;;;;;;;;;;-3.41;87.16;98155.69;4997579;28;20129;-78
2022/01/20 09:38:38;;;;;;;9.95;6.85;;;;;;;-3.49;87.31;98149.53;5029355;28;19921;-79
2022/01/20 09:41:10;;;;;;;13.15;8.05;;;;;;;-3.54;86.67;98145.16;5046505;28;20045;-81
2022/01/20 09:43:36;;;;;;;13.85;7.30;;;;;;;-3.47;86.65;98124.25;4997551;28;20477;-79
2022/01/20 09:46:02;;;;;;;11.55;6.88;;;;;;;-3.45;86.88;98122.59;5013550;28;20045;-78
2022/01/20 09:48:32;;;;;;;11.30;7.00;;;;;;;-3.54;86.69;98130.81;4997561;28;20038;-79
2022/01/20 09:51:13;;;;;;;12.70;6.97;;;;;;;-3.42;86.43;98122.69;4985451;28;20133;-79
2022/01/20 09:54:06;;;;;;;10.35;6.65;;;;;;;-3.41;86.20;98134.53;5012581;28;20109;-78
2022/01/20 09:56:50;;;;;;;13.13;7.53;;;;;;;-3.40;85.87;98114.28;4999866;28;20204;-78
2022/01/20 09:59:19;;;;;;;14.65;8.30;;;;;;;-3.43;86.71;98126.06;4996964;28;20046;-78
2022/01/20 10:01:56;;;;;;;15.40;7.85;;;;;;;-3.46;86.18;98115.81;4980779;28;20057;-78
2022/01/20 10:04:31;;;;;;;12.02;8.48;;;;;;;-3.51;86.11;98104.69;4998535;28;20409;-80
2022/01/20 10:07:09;;;;;;;11.88;8.30;;;;;;;-3.39;86.12;98105.88;4966115;28;20067;-81
2022/01/20 10:09:45;;;;;;;14.88;8.45;;;;;;;-3.38;86.48;98119.41;4997380;28;20046;-81
2022/01/20 10:12:30;;;;;;;13.07;7.57;;;;;;;-3.43;86.40;98113.38;5013794;28;20397;-82
2022/01/20 10:15:19;;;;;;;14.60;8.98;;;;;;;-3.39;86.93;98130.34;5013417;28;20469;-83
2022/01/20 10:18:11;;;;;;;17.55;8.90;;;;;;;-3.39;86.77;98137.97;5013481;28;20033;-82
2022/01/20 10:20:57;;;;;;;17.48;9.45;;;;;;;-3.46;86.50;98123.41;4981161;28;20439;-82
2022/01/20 10:23:47;;;;;;;15.20;8.57;;;;;;;-3.38;86.78;98124.50;5010217;28;20424;-83
2022/01/20 10:26:31;;;;;;;15.68;10.77;;;;;;;-3.59;87.26;98130.69;5013361;28;20449;-80
2022/01/20 10:29:05;;;;;;;19.85;10.73;;;;;;;-3.59;87.77;98115.47;5029676;28;20091;-82
2022/01/20 10:31:52;;;;;;;16.60;9.88;;;;;;;-3.55;87.66;98097.84;5014006;28;20045;-80
2022/01/20 10:34:30;;;;;;;20.40;10.90;;;;;;;-3.55;87.71;98105.44;4996674;28;20440;-81
2022/01/20 10:37:04;;;;;;;17.90;10.27;;;;;;;-3.45;87.46;98107.38;5014819;28;20523;-78
2022/01/20 10:39:40;;;;;;;19.00;11.07;;;;;;;-3.49;88.16;98106.44;4982812;28;20049;-78
2022/01/20 10:42:08;;;;;;;23.27;11.13;;;;;;;-3.40;88.01;98118.50;5029829;28;20056;-77
2022/01/20 10:44:44;;;;;;;19.95;10.90;;;;;;;-3.47;87.93;98121.72;5029246;28;20511;-78
2022/01/20 10:47:13;;;;;;;20.83;10.80;;;;;;;-3.45;88.09;98109.91;4980383;28;20069;-78
2022/01/20 10:49:40;;;;;;;17.30;10.82;;;;;;;-3.44;87.79;98093.88;5012485;28;20140;-77
2022/01/20 10:52:07;;;;;;;21.17;11.95;;;;;;;-3.53;87.60;98098.72;5012662;28;20033;-78
2022/01/20 10:54:46;;;;;;;18.23;11.27;;;;;;;-3.59;87.29;98080.00;4981212;28;20132;-78
2022/01/20 10:57:31;;;;;;;20.75;12.48;;;;;;;-3.62;87.64;98095.16;5013330;28;20053;-81
2022/01/20 11:00:02;;;;;;;17.95;10.85;;;;;;;-3.58;87.99;98083.38;4981207;28;20568;-79
2022/01/20 11:02:41;;;;;;;19.52;11.45;;;;;;;-3.49;88.27;98091.22;5015918;28;20057;-82
2022/01/20 11:05:10;;;;;;;19.35;11.05;;;;;;;-3.54;88.37;98117.28;5012744;28;20136;-82
2022/01/20 11:07:37;;;;;;;21.13;12.25;;;;;;;-3.56;88.16;98084.31;4996541;28;20125;-80
2022/01/20 11:10:06;;;;;;;22.00;12.27;;;;;;;-3.49;87.98;98085.31;5012732;28;20045;-79
2022/01/20 11:13:08;;;;;;;17.13;9.95;;;;;;;-3.43;88.24;98085.50;4969759;28;20022;-80
2022/01/20 11:15:40;;;;;;;17.50;10.90;;;;;;;-3.50;88.05;98073.47;5005975;28;20600;-82
2022/01/20 11:18:08;;;;;;;25.65;13.45;;;;;;;-3.48;88.11;98082.84;5029277;28;20097;-79
2022/01/20 11:20:44;;;;;;;23.08;12.27;;;;;;;-3.43;88.45;98080.41;4980277;28;20038;-79
2022/01/20 11:23:12;;;;;;;22.85;13.52;;;;;;;-3.42;87.67;98077.91;4996358;28;20523;-76
2022/01/20 11:25:45;;;;;;;23.40;11.82;;;;;;;-3.41;88.19;98061.88;4997277;28;20547;-83
2022/01/20 11:28:18;;;;;;;22.65;12.40;;;;;;;-3.33;87.69;98069.69;5012302;28;20041;-78
2022/01/20 11:31:20;;;;;;;25.55;12.98;;;;;;;-3.42;88.17;98087.19;4991889;28;20050;-79
2022/01/20 11:34:18;;;;;;;23.23;13.20;;;;;;;-3.46;87.51;98060.91;4997962;28;20054;-79
2022/01/20 11:36:44;;;;;;;23.37;13.67;;;;;;;-3.43;87.70;98071.13;4979689;28;20073;-77
2022/01/20 11:39:10;;;;;;;23.58;13.07;;;;;;;-3.43;87.75;98060.13;4963499;28;20759;-80
2022/01/20 11:41:45;;;;;;;20.65;12.75;;;;;;;-3.40;87.46;98055.97;5012479;28;20127;-79
2022/01/20 11:44:12;;;;;;;21.00;10.75;;;;;;;-3.29;87.04;98055.41;5012477;28;20049;-82
2022/01/20 11:46:40;;;;;;;18.88;11.35;;;;;;;-3.30;87.45;98044.38;5013602;28;20034;-79
2022/01/20 11:49:08;;;;;;;22.83;13.20;;;;;;;-3.41;87.25;98028.06;4979428;28;20038;-78
2022/01/20 11:51:56;;;;;;;23.88;13.70;;;;;;;-3.32;87.58;98039.28;4996126;28;20025;-77
2022/01/20 11:54:39;;;;;;;21.95;12.18;;;;;;;-3.29;86.92;98023.31;5011857;28;20554;-78
2022/01/20 11:57:12;;;;;;;20.77;12.55;;;;;;;-3.29;86.41;98035.13;5011862;28;20045;-78
2022/01/20 11:59:43;;;;;;;23.77;12.65;;;;;;;-3.29;86.53;98028.38;5011800;28;20050;-78
2022/01/20 12:02:10;;;;;;;21.65;12.43;;;;;;;-3.24;86.75;98026.81;5012773;28;20483;-78
2022/01/20 12:04:38;;;;;;;21.30;11.65;;;;;;;-3.22;86.93;98020.06;4995954;28;20042;-79
2022/01/20 12:07:11;;;;;;;22.08;12.57;;;;;;;-3.21;86.39;98021.78;4966500;28;20041;-78
2022/01/20 12:09:38;;;;;;;20.83;12.95;;;;;;;-3.25;86.06;98054.63;5011521;28;20037;-79
2022/01/20 12:12:06;;;;;;;22.85;12.05;;;;;;;-3.25;85.79;98027.63;5011783;28;20087;-78
2022/01/20 12:14:36;;;;;;;21.25;12.50;;;;;;;-3.27;86.21;98008.97;4995169;28;20076;-79
2022/01/20 12:17:07;;;;;;;20.67;12.52;;;;;;;-3.18;86.36;98028.63;4980836;28;20045;-78
2022/01/20 12:19:33;;;;;;;17.77;11.30;;;;;;;-3.18;85.88;98014.25;5015209;28;20408;-78
2022/01/20 12:21:58;;;;;;;21.48;12.95;;;;;;;-3.14;86.26;98023.66;4983080;28;20091;-78
2022/01/20 12:24:24;;;;;;;22.27;12.82;;;;;;;-3.10;85.30;98020.38;4999403;28;20038;-79
2022/01/20 12:26:50;;;;;;;21.20;11.95;;;;;;;-3.09;85.94;98013.63;5031177;28;20034;-80
2022/01/20 12:29:15;;;;;;;20.02;13.10;;;;;;;-3.16;85.76;98007.56;5015367;28;20528;-83
2022/01/20 12:31:53;;;;;;;20.48;12.10;;;;;;;-3.17;85.72;97997.34;4999677;28;20042;-77
2022/01/20 12:34:19;;;;;;;17.50;11.50;;;;;;;-3.21;85.85;97986.28;5015730;28;20034;-77
2022/01/20 12:36:51;;;;;;;;;;;;;;;-3.15;85.75;98004.19;5015571;28;20030;-78
2022/01/20 12:39:26;;;;;;;23.58;12.02;;;;;;;-3.16;85.05;98005.03;5047680;28;19921;-77
2022/01/20 12:41:56;;;;;;;20.20;11.95;;;;;;;-3.13;85.56;98009.28;5032274;28;20124;-83
2022/01/20 12:44:23;;;;;;;21.23;12.52;;;;;;;-3.30;85.55;97986.06;4998557;28;20168;-79
2022/01/20 12:46:49;;;;;;;18.75;10.43;;;;;;;-3.13;86.03;98004.22;5014741;28;20135;-78